sensor_id;sensor_type;location;lat;lon;timestamp;P1;durP1;ratioP1;P2;durP2;ratioP2
22711;SDS011;11523;50.390;8.072;2023-07-22T00:09:02;7.82;;;5.20;;
22711;SDS011;11523;50.390;8.072;2023-07-22T00:11:42;7.43;;;5.32;;
22711;SDS011;11523;50.390;8.072;2023-07-22T00:17:04;5.82;;;5.10;;
22711;SDS011;11523;50.390;8.072;2023-07-22T00:19:30;9.23;;;5.35;;
22711;SDS011;11523;50.390;8.072;2023-07-22T00:22:01;6.00;;;4.95;;
22711;SDS011;11523;50.390;8.072;2023-07-22T00:24:33;7.03;;;5.00;;
22711;SDS011;11523;50.390;8.072;2023-07-22T00:27:02;7.20;;;4.72;;
22711;SDS011;11523;50.390;8.072;2023-07-22T00:29:28;9.23;;;5.28;;
22711;SDS011;11523;50.390;8.072;2023-07-22T00:31:54;7.15;;;5.18;;
22711;SDS011;11523;50.390;8.072;2023-07-22T00:34:20;6.28;;;5.43;;
22711;SDS011;11523;50.390;8.072;2023-07-22T00:36:48;5.97;;;5.47;;
22711;SDS011;11523;50.390;8.072;2023-07-22T00:39:14;4.95;;;4.55;;
22711;SDS011;11523;50.390;8.072;2023-07-22T00:41:43;7.38;;;5.28;;
22711;SDS011;11523;50.390;8.072;2023-07-22T00:44:12;5.90;;;5.28;;
22711;SDS011;11523;50.390;8.072;2023-07-22T00:46:41;6.97;;;5.18;;
22711;SDS011;11523;50.390;8.072;2023-07-22T00:49:09;9.73;;;4.97;;
22711;SDS011;11523;50.390;8.072;2023-07-22T00:51:35;6.30;;;4.70;;
22711;SDS011;11523;50.390;8.072;2023-07-22T00:54:01;39.65;;;5.15;;
22711;SDS011;11523;50.390;8.072;2023-07-22T00:56:30;52.60;;;5.53;;
22711;SDS011;11523;50.390;8.072;2023-07-22T00:58:57;31.13;;;5.20;;
22711;SDS011;11523;50.390;8.072;2023-07-22T01:01:25;26.00;;;4.93;;
22711;SDS011;11523;50.390;8.072;2023-07-22T01:07:05;23.48;;;5.18;;
22711;SDS011;11523;50.390;8.072;2023-07-22T01:09:39;21.85;;;4.80;;
22711;SDS011;11523;50.390;8.072;2023-07-22T01:12:08;10.68;;;5.70;;
22711;SDS011;11523;50.390;8.072;2023-07-22T01:17:34;8.90;;;4.80;;
22711;SDS011;11523;50.390;8.072;2023-07-22T01:20:10;6.63;;;5.32;;
22711;SDS011;11523;50.390;8.072;2023-07-22T01:25:41;8.75;;;5.85;;
22711;SDS011;11523;50.390;8.072;2023-07-22T01:28:30;9.95;;;5.70;;
22711;SDS011;11523;50.390;8.072;2023-07-22T01:33:28;7.80;;;5.93;;
22711;SDS011;11523;50.390;8.072;2023-07-22T01:36:02;44.45;;;7.15;;
22711;SDS011;11523;50.390;8.072;2023-07-22T01:38:38;80.78;;;7.95;;
22711;SDS011;11523;50.390;8.072;2023-07-22T01:41:19;86.82;;;8.18;;
22711;SDS011;11523;50.390;8.072;2023-07-22T01:43:55;267.77;;;11.18;;
22711;SDS011;11523;50.390;8.072;2023-07-22T01:52:40;104.47;;;7.28;;
22711;SDS011;11523;50.390;8.072;2023-07-22T02:01:35;32.10;;;4.88;;
22711;SDS011;11523;50.390;8.072;2023-07-22T02:06:48;77.20;;;5.53;;
22711;SDS011;11523;50.390;8.072;2023-07-22T02:09:24;104.45;;;6.15;;
22711;SDS011;11523;50.390;8.072;2023-07-22T02:12:15;23.95;;;4.38;;
22711;SDS011;11523;50.390;8.072;2023-07-22T02:14:53;4.57;;;4.18;;
22711;SDS011;11523;50.390;8.072;2023-07-22T02:17:35;4.68;;;4.28;;
22711;SDS011;11523;50.390;8.072;2023-07-22T02:20:29;7.50;;;5.90;;
22711;SDS011;11523;50.390;8.072;2023-07-22T02:23:44;7.53;;;5.90;;
22711;SDS011;11523;50.390;8.072;2023-07-22T02:26:24;9.15;;;5.50;;
22711;SDS011;11523;50.390;8.072;2023-07-22T02:29:20;10.73;;;5.70;;
22711;SDS011;11523;50.390;8.072;2023-07-22T02:32:06;7.15;;;5.57;;
22711;SDS011;11523;50.390;8.072;2023-07-22T02:34:38;11.15;;;5.40;;
22711;SDS011;11523;50.390;8.072;2023-07-22T02:37:14;15.50;;;6.82;;
22711;SDS011;11523;50.390;8.072;2023-07-22T02:39:50;21.33;;;8.32;;
22711;SDS011;11523;50.390;8.072;2023-07-22T02:42:37;48.83;;;8.57;;
22711;SDS011;11523;50.390;8.072;2023-07-22T02:45:16;25.45;;;8.60;;
22711;SDS011;11523;50.390;8.072;2023-07-22T02:54:31;93.50;;;8.10;;
22711;SDS011;11523;50.390;8.072;2023-07-22T02:57:12;98.10;;;8.40;;
22711;SDS011;11523;50.390;8.072;2023-07-22T03:03:10;30.25;;;7.97;;
22711;SDS011;11523;50.390;8.072;2023-07-22T03:09:00;44.08;;;8.45;;
22711;SDS011;11523;50.390;8.072;2023-07-22T03:11:37;76.50;;;7.85;;
22711;SDS011;11523;50.390;8.072;2023-07-22T03:14:11;60.25;;;7.53;;
22711;SDS011;11523;50.390;8.072;2023-07-22T03:23:03;32.92;;;6.70;;
22711;SDS011;11523;50.390;8.072;2023-07-22T03:32:01;51.70;;;7.90;;
22711;SDS011;11523;50.390;8.072;2023-07-22T03:53:29;12.85;;;7.78;;
22711;SDS011;11523;50.390;8.072;2023-07-22T03:56:01;12.45;;;7.95;;
22711;SDS011;11523;50.390;8.072;2023-07-22T03:58:53;20.95;;;8.20;;
22711;SDS011;11523;50.390;8.072;2023-07-22T04:10:57;9.82;;;8.30;;
22711;SDS011;11523;50.390;8.072;2023-07-22T04:32:52;14.18;;;8.65;;
22711;SDS011;11523;50.390;8.072;2023-07-22T04:35:26;12.35;;;8.77;;
22711;SDS011;11523;50.390;8.072;2023-07-22T04:37:52;12.40;;;7.75;;
22711;SDS011;11523;50.390;8.072;2023-07-22T04:40:18;10.10;;;7.93;;
22711;SDS011;11523;50.390;8.072;2023-07-22T04:42:44;9.48;;;7.57;;
22711;SDS011;11523;50.390;8.072;2023-07-22T04:45:11;9.25;;;7.45;;
22711;SDS011;11523;50.390;8.072;2023-07-22T04:47:37;12.20;;;7.90;;
22711;SDS011;11523;50.390;8.072;2023-07-22T04:50:09;9.57;;;7.57;;
22711;SDS011;11523;50.390;8.072;2023-07-22T04:52:35;10.85;;;7.28;;
22711;SDS011;11523;50.390;8.072;2023-07-22T04:55:02;10.88;;;7.65;;
22711;SDS011;11523;50.390;8.072;2023-07-22T04:57:34;13.15;;;7.97;;
22711;SDS011;11523;50.390;8.072;2023-07-22T05:00:01;7.93;;;6.30;;
22711;SDS011;11523;50.390;8.072;2023-07-22T05:02:30;9.88;;;6.43;;
22711;SDS011;11523;50.390;8.072;2023-07-22T05:04:56;10.02;;;6.45;;
22711;SDS011;11523;50.390;8.072;2023-07-22T05:07:22;8.90;;;6.47;;
22711;SDS011;11523;50.390;8.072;2023-07-22T05:09:49;10.20;;;6.85;;
22711;SDS011;11523;50.390;8.072;2023-07-22T05:12:16;8.45;;;6.15;;
22711;SDS011;11523;50.390;8.072;2023-07-22T05:14:42;19.33;;;9.30;;
22711;SDS011;11523;50.390;8.072;2023-07-22T05:17:08;12.95;;;8.27;;
22711;SDS011;11523;50.390;8.072;2023-07-22T05:19:34;13.10;;;8.73;;
22711;SDS011;11523;50.390;8.072;2023-07-22T05:21:59;12.13;;;8.45;;
22711;SDS011;11523;50.390;8.072;2023-07-22T05:24:25;11.18;;;8.85;;
22711;SDS011;11523;50.390;8.072;2023-07-22T05:26:51;10.00;;;8.10;;
22711;SDS011;11523;50.390;8.072;2023-07-22T05:29:19;15.13;;;8.35;;
22711;SDS011;11523;50.390;8.072;2023-07-22T05:31:45;9.93;;;8.02;;
22711;SDS011;11523;50.390;8.072;2023-07-22T05:34:11;9.50;;;8.60;;
22711;SDS011;11523;50.390;8.072;2023-07-22T05:36:38;8.88;;;7.80;;
22711;SDS011;11523;50.390;8.072;2023-07-22T05:39:03;22.88;;;8.55;;
22711;SDS011;11523;50.390;8.072;2023-07-22T05:41:29;16.90;;;8.73;;
22711;SDS011;11523;50.390;8.072;2023-07-22T05:43:55;9.20;;;8.30;;
22711;SDS011;11523;50.390;8.072;2023-07-22T05:46:21;8.57;;;7.68;;
22711;SDS011;11523;50.390;8.072;2023-07-22T05:48:47;9.45;;;8.27;;
22711;SDS011;11523;50.390;8.072;2023-07-22T05:51:13;10.25;;;7.68;;
22711;SDS011;11523;50.390;8.072;2023-07-22T05:53:40;9.45;;;8.55;;
22711;SDS011;11523;50.390;8.072;2023-07-22T05:56:06;10.80;;;8.18;;
22711;SDS011;11523;50.390;8.072;2023-07-22T05:58:32;12.30;;;8.85;;
22711;SDS011;11523;50.390;8.072;2023-07-22T06:00:58;12.82;;;8.68;;
22711;SDS011;11523;50.390;8.072;2023-07-22T06:03:24;12.88;;;7.93;;
22711;SDS011;11523;50.390;8.072;2023-07-22T06:05:50;9.73;;;8.20;;
22711;SDS011;11523;50.390;8.072;2023-07-22T06:08:16;9.27;;;8.48;;
22711;SDS011;11523;50.390;8.072;2023-07-22T06:10:42;10.30;;;8.38;;
22711;SDS011;11523;50.390;8.072;2023-07-22T06:13:08;11.45;;;8.60;;
22711;SDS011;11523;50.390;8.072;2023-07-22T06:15:34;11.43;;;8.55;;
22711;SDS011;11523;50.390;8.072;2023-07-22T06:18:00;9.27;;;8.32;;
22711;SDS011;11523;50.390;8.072;2023-07-22T06:20:26;9.70;;;8.55;;
22711;SDS011;11523;50.390;8.072;2023-07-22T06:22:52;9.07;;;8.18;;
22711;SDS011;11523;50.390;8.072;2023-07-22T06:25:18;9.65;;;8.70;;
22711;SDS011;11523;50.390;8.072;2023-07-22T06:27:44;9.15;;;8.35;;
22711;SDS011;11523;50.390;8.072;2023-07-22T06:30:10;9.77;;;8.77;;
22711;SDS011;11523;50.390;8.072;2023-07-22T06:32:36;10.13;;;9.07;;
22711;SDS011;11523;50.390;8.072;2023-07-22T06:35:03;10.13;;;9.00;;
22711;SDS011;11523;50.390;8.072;2023-07-22T06:37:29;10.73;;;8.80;;
22711;SDS011;11523;50.390;8.072;2023-07-22T06:39:55;11.90;;;9.15;;
22711;SDS011;11523;50.390;8.072;2023-07-22T06:42:21;9.57;;;8.68;;
22711;SDS011;11523;50.390;8.072;2023-07-22T06:44:47;9.25;;;8.35;;
22711;SDS011;11523;50.390;8.072;2023-07-22T06:47:13;12.02;;;8.65;;
22711;SDS011;11523;50.390;8.072;2023-07-22T06:49:39;11.90;;;8.88;;
22711;SDS011;11523;50.390;8.072;2023-07-22T06:52:08;10.10;;;8.57;;
22711;SDS011;11523;50.390;8.072;2023-07-22T06:54:34;9.73;;;8.82;;
22711;SDS011;11523;50.390;8.072;2023-07-22T06:57:01;10.07;;;8.95;;
22711;SDS011;11523;50.390;8.072;2023-07-22T06:59:27;10.40;;;9.05;;
22711;SDS011;11523;50.390;8.072;2023-07-22T07:01:53;9.80;;;8.45;;
22711;SDS011;11523;50.390;8.072;2023-07-22T07:04:19;15.25;;;9.40;;
22711;SDS011;11523;50.390;8.072;2023-07-22T07:06:45;9.27;;;8.32;;
22711;SDS011;11523;50.390;8.072;2023-07-22T07:09:12;10.82;;;8.93;;
22711;SDS011;11523;50.390;8.072;2023-07-22T07:11:37;9.85;;;8.85;;
22711;SDS011;11523;50.390;8.072;2023-07-22T07:14:03;12.43;;;9.75;;
22711;SDS011;11523;50.390;8.072;2023-07-22T07:16:30;11.18;;;10.07;;
22711;SDS011;11523;50.390;8.072;2023-07-22T07:18:57;10.98;;;9.55;;
22711;SDS011;11523;50.390;8.072;2023-07-22T07:21:23;10.93;;;9.93;;
22711;SDS011;11523;50.390;8.072;2023-07-22T07:23:50;11.30;;;9.63;;
22711;SDS011;11523;50.390;8.072;2023-07-22T07:26:16;10.23;;;9.32;;
22711;SDS011;11523;50.390;8.072;2023-07-22T07:28:42;10.43;;;9.13;;
22711;SDS011;11523;50.390;8.072;2023-07-22T07:31:08;14.65;;;9.45;;
22711;SDS011;11523;50.390;8.072;2023-07-22T07:33:34;15.73;;;9.27;;
22711;SDS011;11523;50.390;8.072;2023-07-22T07:36:01;10.80;;;9.68;;
22711;SDS011;11523;50.390;8.072;2023-07-22T07:38:28;12.13;;;9.68;;
22711;SDS011;11523;50.390;8.072;2023-07-22T07:41:03;12.70;;;10.30;;
22711;SDS011;11523;50.390;8.072;2023-07-22T07:43:30;11.27;;;9.30;;
22711;SDS011;11523;50.390;8.072;2023-07-22T07:46:11;11.30;;;10.00;;
22711;SDS011;11523;50.390;8.072;2023-07-22T07:48:37;12.23;;;10.27;;
22711;SDS011;11523;50.390;8.072;2023-07-22T07:51:03;11.63;;;10.52;;
22711;SDS011;11523;50.390;8.072;2023-07-22T07:53:29;12.07;;;10.00;;
22711;SDS011;11523;50.390;8.072;2023-07-22T07:56:03;12.27;;;10.55;;
22711;SDS011;11523;50.390;8.072;2023-07-22T07:58:29;11.85;;;10.32;;
22711;SDS011;11523;50.390;8.072;2023-07-22T08:00:54;10.93;;;9.82;;
22711;SDS011;11523;50.390;8.072;2023-07-22T08:03:20;13.95;;;10.95;;
22711;SDS011;11523;50.390;8.072;2023-07-22T08:05:46;10.95;;;9.85;;
22711;SDS011;11523;50.390;8.072;2023-07-22T08:08:12;10.95;;;9.80;;
22711;SDS011;11523;50.390;8.072;2023-07-22T08:10:38;11.43;;;10.32;;
22711;SDS011;11523;50.390;8.072;2023-07-22T08:13:04;10.85;;;9.75;;
22711;SDS011;11523;50.390;8.072;2023-07-22T08:15:37;10.98;;;9.48;;
22711;SDS011;11523;50.390;8.072;2023-07-22T08:18:02;9.90;;;8.90;;
22711;SDS011;11523;50.390;8.072;2023-07-22T08:20:29;9.52;;;8.60;;
22711;SDS011;11523;50.390;8.072;2023-07-22T08:22:55;10.65;;;9.52;;
22711;SDS011;11523;50.390;8.072;2023-07-22T08:25:21;11.85;;;10.27;;
22711;SDS011;11523;50.390;8.072;2023-07-22T08:27:47;11.10;;;9.95;;
22711;SDS011;11523;50.390;8.072;2023-07-22T08:30:13;11.15;;;9.88;;
22711;SDS011;11523;50.390;8.072;2023-07-22T08:32:39;11.07;;;9.80;;
22711;SDS011;11523;50.390;8.072;2023-07-22T08:35:05;14.52;;;10.43;;
22711;SDS011;11523;50.390;8.072;2023-07-22T08:37:38;12.77;;;9.43;;
22711;SDS011;11523;50.390;8.072;2023-07-22T08:40:05;11.38;;;9.20;;
22711;SDS011;11523;50.390;8.072;2023-07-22T08:42:32;14.10;;;9.02;;
22711;SDS011;11523;50.390;8.072;2023-07-22T08:45:00;9.90;;;8.90;;
22711;SDS011;11523;50.390;8.072;2023-07-22T08:47:27;11.63;;;8.05;;
22711;SDS011;11523;50.390;8.072;2023-07-22T08:49:55;10.77;;;7.85;;
22711;SDS011;11523;50.390;8.072;2023-07-22T08:52:23;9.73;;;7.85;;
22711;SDS011;11523;50.390;8.072;2023-07-22T08:54:49;13.38;;;7.13;;
22711;SDS011;11523;50.390;8.072;2023-07-22T08:57:15;9.50;;;7.45;;
22711;SDS011;11523;50.390;8.072;2023-07-22T08:59:41;9.57;;;6.97;;
22711;SDS011;11523;50.390;8.072;2023-07-22T09:02:10;7.25;;;6.50;;
22711;SDS011;11523;50.390;8.072;2023-07-22T09:04:38;9.45;;;7.28;;
22711;SDS011;11523;50.390;8.072;2023-07-22T09:07:04;8.13;;;7.22;;
22711;SDS011;11523;50.390;8.072;2023-07-22T09:09:31;7.72;;;6.93;;
22711;SDS011;11523;50.390;8.072;2023-07-22T09:11:57;8.57;;;6.50;;
22711;SDS011;11523;50.390;8.072;2023-07-22T09:14:23;8.80;;;6.57;;
22711;SDS011;11523;50.390;8.072;2023-07-22T09:16:49;7.80;;;6.50;;
22711;SDS011;11523;50.390;8.072;2023-07-22T09:19:15;7.90;;;6.05;;
22711;SDS011;11523;50.390;8.072;2023-07-22T09:21:42;10.57;;;6.15;;
22711;SDS011;11523;50.390;8.072;2023-07-22T09:24:19;8.63;;;6.03;;
22711;SDS011;11523;50.390;8.072;2023-07-22T09:26:46;7.63;;;5.78;;
22711;SDS011;11523;50.390;8.072;2023-07-22T09:29:12;6.93;;;5.90;;
22711;SDS011;11523;50.390;8.072;2023-07-22T09:31:48;5.90;;;5.40;;
22711;SDS011;11523;50.390;8.072;2023-07-22T09:34:14;10.07;;;5.75;;
22711;SDS011;11523;50.390;8.072;2023-07-22T09:36:50;5.63;;;5.05;;
22711;SDS011;11523;50.390;8.072;2023-07-22T09:39:17;6.45;;;4.90;;
22711;SDS011;11523;50.390;8.072;2023-07-22T09:41:43;5.57;;;4.93;;
22711;SDS011;11523;50.390;8.072;2023-07-22T09:44:09;5.90;;;5.30;;
22711;SDS011;11523;50.390;8.072;2023-07-22T09:46:37;6.32;;;5.28;;
22711;SDS011;11523;50.390;8.072;2023-07-22T09:49:03;5.15;;;4.53;;
22711;SDS011;11523;50.390;8.072;2023-07-22T09:51:37;5.60;;;5.03;;
22711;SDS011;11523;50.390;8.072;2023-07-22T09:54:04;7.93;;;4.70;;
22711;SDS011;11523;50.390;8.072;2023-07-22T09:56:31;6.15;;;4.75;;
22711;SDS011;11523;50.390;8.072;2023-07-22T09:58:58;6.53;;;4.60;;
22711;SDS011;11523;50.390;8.072;2023-07-22T10:01:24;4.68;;;4.28;;
22711;SDS011;11523;50.390;8.072;2023-07-22T10:03:54;6.38;;;4.72;;
22711;SDS011;11523;50.390;8.072;2023-07-22T10:06:26;5.53;;;4.50;;
22711;SDS011;11523;50.390;8.072;2023-07-22T10:08:52;6.95;;;3.88;;
22711;SDS011;11523;50.390;8.072;2023-07-22T10:11:18;4.85;;;4.45;;
22711;SDS011;11523;50.390;8.072;2023-07-22T10:13:45;5.43;;;3.47;;
22711;SDS011;11523;50.390;8.072;2023-07-22T10:16:11;5.47;;;3.90;;
22711;SDS011;11523;50.390;8.072;2023-07-22T10:18:37;7.47;;;3.50;;
22711;SDS011;11523;50.390;8.072;2023-07-22T10:21:06;5.60;;;3.78;;
22711;SDS011;11523;50.390;8.072;2023-07-22T10:23:32;5.80;;;4.05;;
22711;SDS011;11523;50.390;8.072;2023-07-22T10:25:59;4.22;;;3.85;;
22711;SDS011;11523;50.390;8.072;2023-07-22T10:28:25;6.65;;;4.20;;
22711;SDS011;11523;50.390;8.072;2023-07-22T10:30:52;4.57;;;4.00;;
22711;SDS011;11523;50.390;8.072;2023-07-22T10:33:18;4.30;;;3.90;;
22711;SDS011;11523;50.390;8.072;2023-07-22T10:35:53;6.05;;;3.58;;
22711;SDS011;11523;50.390;8.072;2023-07-22T10:38:27;4.60;;;3.67;;
22711;SDS011;11523;50.390;8.072;2023-07-22T10:40:53;4.80;;;3.60;;
22711;SDS011;11523;50.390;8.072;2023-07-22T10:43:32;4.22;;;3.80;;
22711;SDS011;11523;50.390;8.072;2023-07-22T10:46:00;5.68;;;3.50;;
22711;SDS011;11523;50.390;8.072;2023-07-22T10:48:34;7.35;;;3.92;;
22711;SDS011;11523;50.390;8.072;2023-07-22T10:51:05;5.50;;;3.33;;
22711;SDS011;11523;50.390;8.072;2023-07-22T10:53:31;5.97;;;4.20;;
22711;SDS011;11523;50.390;8.072;2023-07-22T11:01:24;5.47;;;3.45;;
22711;SDS011;11523;50.390;8.072;2023-07-22T11:04:05;5.32;;;4.10;;
22711;SDS011;11523;50.390;8.072;2023-07-22T11:06:31;4.03;;;3.40;;
22711;SDS011;11523;50.390;8.072;2023-07-22T11:08:57;6.15;;;3.70;;
22711;SDS011;11523;50.390;8.072;2023-07-22T11:14:19;4.50;;;3.78;;
22711;SDS011;11523;50.390;8.072;2023-07-22T11:16:46;5.68;;;3.72;;
22711;SDS011;11523;50.390;8.072;2023-07-22T11:19:16;6.28;;;4.15;;
22711;SDS011;11523;50.390;8.072;2023-07-22T11:21:46;5.05;;;3.88;;
22711;SDS011;11523;50.390;8.072;2023-07-22T11:24:13;5.05;;;3.10;;
22711;SDS011;11523;50.390;8.072;2023-07-22T11:26:39;3.50;;;3.17;;
22711;SDS011;11523;50.390;8.072;2023-07-22T11:29:06;3.90;;;3.50;;
22711;SDS011;11523;50.390;8.072;2023-07-22T11:31:32;6.70;;;3.40;;
22711;SDS011;11523;50.390;8.072;2023-07-22T11:33:58;7.53;;;3.83;;
22711;SDS011;11523;50.390;8.072;2023-07-22T11:36:25;4.18;;;3.60;;
22711;SDS011;11523;50.390;8.072;2023-07-22T11:38:51;4.70;;;3.67;;
22711;SDS011;11523;50.390;8.072;2023-07-22T11:41:17;3.80;;;3.35;;
22711;SDS011;11523;50.390;8.072;2023-07-22T11:43:43;6.97;;;3.58;;
22711;SDS011;11523;50.390;8.072;2023-07-22T11:46:09;5.53;;;2.67;;
22711;SDS011;11523;50.390;8.072;2023-07-22T11:48:35;3.72;;;3.42;;
22711;SDS011;11523;50.390;8.072;2023-07-22T11:51:01;3.97;;;3.40;;
22711;SDS011;11523;50.390;8.072;2023-07-22T11:53:27;3.78;;;2.92;;
22711;SDS011;11523;50.390;8.072;2023-07-22T11:55:57;3.85;;;3.22;;
22711;SDS011;11523;50.390;8.072;2023-07-22T11:58:24;4.13;;;3.83;;
22711;SDS011;11523;50.390;8.072;2023-07-22T12:01:01;5.72;;;3.53;;
22711;SDS011;11523;50.390;8.072;2023-07-22T12:03:30;4.30;;;3.90;;
22711;SDS011;11523;50.390;8.072;2023-07-22T12:05:59;10.02;;;4.30;;
22711;SDS011;11523;50.390;8.072;2023-07-22T12:08:26;5.22;;;3.58;;
22711;SDS011;11523;50.390;8.072;2023-07-22T12:10:55;5.03;;;4.28;;
22711;SDS011;11523;50.390;8.072;2023-07-22T12:13:21;4.97;;;4.03;;
22711;SDS011;11523;50.390;8.072;2023-07-22T12:16:00;4.32;;;3.65;;
22711;SDS011;11523;50.390;8.072;2023-07-22T12:18:26;4.13;;;3.60;;
22711;SDS011;11523;50.390;8.072;2023-07-22T12:20:59;4.43;;;3.53;;
22711;SDS011;11523;50.390;8.072;2023-07-22T12:23:24;4.13;;;3.47;;
22711;SDS011;11523;50.390;8.072;2023-07-22T12:25:50;4.28;;;3.60;;
22711;SDS011;11523;50.390;8.072;2023-07-22T12:28:16;6.68;;;3.50;;
22711;SDS011;11523;50.390;8.072;2023-07-22T12:30:42;4.80;;;3.90;;
22711;SDS011;11523;50.390;8.072;2023-07-22T12:33:08;5.85;;;3.90;;
22711;SDS011;11523;50.390;8.072;2023-07-22T12:35:35;5.05;;;3.97;;
22711;SDS011;11523;50.390;8.072;2023-07-22T12:38:01;4.00;;;3.60;;
22711;SDS011;11523;50.390;8.072;2023-07-22T12:40:26;4.32;;;3.92;;
22711;SDS011;11523;50.390;8.072;2023-07-22T12:42:52;4.53;;;4.13;;
22711;SDS011;11523;50.390;8.072;2023-07-22T12:45:18;4.30;;;3.90;;
22711;SDS011;11523;50.390;8.072;2023-07-22T12:47:44;5.50;;;4.32;;
22711;SDS011;11523;50.390;8.072;2023-07-22T12:50:10;6.72;;;4.25;;
22711;SDS011;11523;50.390;8.072;2023-07-22T12:52:37;4.18;;;3.58;;
22711;SDS011;11523;50.390;8.072;2023-07-22T12:55:03;4.57;;;4.00;;
22711;SDS011;11523;50.390;8.072;2023-07-22T12:57:29;5.20;;;4.00;;
22711;SDS011;11523;50.390;8.072;2023-07-22T12:59:55;4.60;;;4.20;;
22711;SDS011;11523;50.390;8.072;2023-07-22T13:02:21;4.20;;;3.38;;
22711;SDS011;11523;50.390;8.072;2023-07-22T13:04:47;4.47;;;4.07;;
22711;SDS011;11523;50.390;8.072;2023-07-22T13:07:13;8.40;;;4.10;;
22711;SDS011;11523;50.390;8.072;2023-07-22T13:09:39;4.60;;;3.80;;
22711;SDS011;11523;50.390;8.072;2023-07-22T13:12:07;4.45;;;3.80;;
22711;SDS011;11523;50.390;8.072;2023-07-22T13:14:33;4.70;;;3.70;;
22711;SDS011;11523;50.390;8.072;2023-07-22T13:16:59;6.38;;;4.25;;
22711;SDS011;11523;50.390;8.072;2023-07-22T13:19:25;5.55;;;3.85;;
22711;SDS011;11523;50.390;8.072;2023-07-22T13:21:51;3.97;;;3.65;;
22711;SDS011;11523;50.390;8.072;2023-07-22T13:24:17;4.30;;;3.90;;
22711;SDS011;11523;50.390;8.072;2023-07-22T13:26:43;5.18;;;3.90;;
22711;SDS011;11523;50.390;8.072;2023-07-22T13:29:09;6.85;;;4.35;;
22711;SDS011;11523;50.390;8.072;2023-07-22T13:31:34;5.45;;;3.67;;
22711;SDS011;11523;50.390;8.072;2023-07-22T13:34:00;7.10;;;3.75;;
22711;SDS011;11523;50.390;8.072;2023-07-22T13:36:26;5.30;;;4.18;;
22711;SDS011;11523;50.390;8.072;2023-07-22T13:38:52;5.10;;;4.28;;
22711;SDS011;11523;50.390;8.072;2023-07-22T13:41:19;4.65;;;4.13;;
22711;SDS011;11523;50.390;8.072;2023-07-22T13:43:45;6.78;;;4.03;;
22711;SDS011;11523;50.390;8.072;2023-07-22T13:46:11;6.07;;;4.07;;
22711;SDS011;11523;50.390;8.072;2023-07-22T13:48:36;4.25;;;3.83;;
22711;SDS011;11523;50.390;8.072;2023-07-22T13:51:02;3.85;;;3.30;;
22711;SDS011;11523;50.390;8.072;2023-07-22T13:53:28;6.07;;;3.70;;
22711;SDS011;11523;50.390;8.072;2023-07-22T13:55:54;4.45;;;4.00;;
22711;SDS011;11523;50.390;8.072;2023-07-22T13:58:20;4.80;;;4.32;;
22711;SDS011;11523;50.390;8.072;2023-07-22T14:00:46;4.88;;;4.13;;
22711;SDS011;11523;50.390;8.072;2023-07-22T14:03:13;4.28;;;3.88;;
22711;SDS011;11523;50.390;8.072;2023-07-22T14:05:39;5.97;;;4.05;;
22711;SDS011;11523;50.390;8.072;2023-07-22T14:08:05;4.47;;;3.78;;
22711;SDS011;11523;50.390;8.072;2023-07-22T14:10:31;4.22;;;3.83;;
22711;SDS011;11523;50.390;8.072;2023-07-22T14:12:57;5.97;;;4.18;;
22711;SDS011;11523;50.390;8.072;2023-07-22T14:15:23;4.55;;;4.15;;
22711;SDS011;11523;50.390;8.072;2023-07-22T14:17:49;5.63;;;4.32;;
22711;SDS011;11523;50.390;8.072;2023-07-22T14:20:15;6.05;;;4.57;;
22711;SDS011;11523;50.390;8.072;2023-07-22T14:22:41;6.05;;;4.60;;
22711;SDS011;11523;50.390;8.072;2023-07-22T14:25:07;5.38;;;4.20;;
22711;SDS011;11523;50.390;8.072;2023-07-22T14:27:33;5.00;;;4.40;;
22711;SDS011;11523;50.390;8.072;2023-07-22T14:30:00;4.40;;;3.83;;
22711;SDS011;11523;50.390;8.072;2023-07-22T14:32:33;4.90;;;3.70;;
22711;SDS011;11523;50.390;8.072;2023-07-22T14:34:58;5.07;;;4.43;;
22711;SDS011;11523;50.390;8.072;2023-07-22T14:37:24;4.60;;;4.05;;
22711;SDS011;11523;50.390;8.072;2023-07-22T14:39:50;5.00;;;4.13;;
22711;SDS011;11523;50.390;8.072;2023-07-22T14:42:16;5.68;;;4.30;;
22711;SDS011;11523;50.390;8.072;2023-07-22T14:44:42;4.75;;;4.20;;
22711;SDS011;11523;50.390;8.072;2023-07-22T14:47:08;6.55;;;3.90;;
22711;SDS011;11523;50.390;8.072;2023-07-22T14:49:34;5.85;;;4.10;;
22711;SDS011;11523;50.390;8.072;2023-07-22T14:52:00;5.63;;;4.28;;
22711;SDS011;11523;50.390;8.072;2023-07-22T14:54:27;5.13;;;4.00;;
22711;SDS011;11523;50.390;8.072;2023-07-22T14:56:53;6.60;;;4.47;;
22711;SDS011;11523;50.390;8.072;2023-07-22T14:59:18;4.10;;;3.70;;
22711;SDS011;11523;50.390;8.072;2023-07-22T15:01:44;6.18;;;4.35;;
22711;SDS011;11523;50.390;8.072;2023-07-22T15:04:10;4.47;;;4.07;;
22711;SDS011;11523;50.390;8.072;2023-07-22T15:06:36;7.70;;;4.10;;
22711;SDS011;11523;50.390;8.072;2023-07-22T15:09:02;6.80;;;4.70;;
22711;SDS011;11523;50.390;8.072;2023-07-22T15:11:33;6.47;;;4.65;;
22711;SDS011;11523;50.390;8.072;2023-07-22T15:14:00;5.38;;;4.05;;
22711;SDS011;11523;50.390;8.072;2023-07-22T15:16:26;4.78;;;4.35;;
22711;SDS011;11523;50.390;8.072;2023-07-22T15:18:52;6.70;;;4.82;;
22711;SDS011;11523;50.390;8.072;2023-07-22T15:21:18;5.00;;;4.40;;
22711;SDS011;11523;50.390;8.072;2023-07-22T15:23:44;4.70;;;4.00;;
22711;SDS011;11523;50.390;8.072;2023-07-22T15:26:10;4.60;;;4.10;;
22711;SDS011;11523;50.390;8.072;2023-07-22T15:28:36;6.72;;;4.55;;
22711;SDS011;11523;50.390;8.072;2023-07-22T15:31:02;5.38;;;4.60;;
22711;SDS011;11523;50.390;8.072;2023-07-22T15:33:28;5.85;;;4.25;;
22711;SDS011;11523;50.390;8.072;2023-07-22T15:35:54;5.43;;;4.57;;
22711;SDS011;11523;50.390;8.072;2023-07-22T15:38:20;5.45;;;3.95;;
22711;SDS011;11523;50.390;8.072;2023-07-22T15:40:47;4.93;;;4.35;;
22711;SDS011;11523;50.390;8.072;2023-07-22T15:43:13;6.53;;;4.45;;
22711;SDS011;11523;50.390;8.072;2023-07-22T15:45:39;4.88;;;4.30;;
22711;SDS011;11523;50.390;8.072;2023-07-22T15:48:05;8.15;;;4.80;;
22711;SDS011;11523;50.390;8.072;2023-07-22T15:50:31;5.03;;;4.53;;
22711;SDS011;11523;50.390;8.072;2023-07-22T15:52:58;5.95;;;4.57;;
22711;SDS011;11523;50.390;8.072;2023-07-22T15:55:24;6.75;;;5.05;;
22711;SDS011;11523;50.390;8.072;2023-07-22T15:57:50;6.70;;;4.80;;
22711;SDS011;11523;50.390;8.072;2023-07-22T16:00:16;4.40;;;4.07;;
22711;SDS011;11523;50.390;8.072;2023-07-22T16:02:42;4.30;;;3.85;;
22711;SDS011;11523;50.390;8.072;2023-07-22T16:05:08;5.45;;;4.45;;
22711;SDS011;11523;50.390;8.072;2023-07-22T16:07:35;4.55;;;4.15;;
22711;SDS011;11523;50.390;8.072;2023-07-22T16:10:02;4.55;;;4.15;;
22711;SDS011;11523;50.390;8.072;2023-07-22T16:12:28;4.55;;;4.10;;
22711;SDS011;11523;50.390;8.072;2023-07-22T16:14:55;7.05;;;4.65;;
22711;SDS011;11523;50.390;8.072;2023-07-22T16:17:21;5.07;;;4.60;;
22711;SDS011;11523;50.390;8.072;2023-07-22T16:19:47;5.40;;;4.43;;
22711;SDS011;11523;50.390;8.072;2023-07-22T16:22:14;5.28;;;4.30;;
22711;SDS011;11523;50.390;8.072;2023-07-22T16:24:40;9.82;;;4.80;;
22711;SDS011;11523;50.390;8.072;2023-07-22T16:27:06;4.80;;;3.35;;
22711;SDS011;11523;50.390;8.072;2023-07-22T16:29:32;4.35;;;3.95;;
22711;SDS011;11523;50.390;8.072;2023-07-22T16:32:02;6.40;;;3.78;;
22711;SDS011;11523;50.390;8.072;2023-07-22T16:34:28;4.22;;;3.80;;
22711;SDS011;11523;50.390;8.072;2023-07-22T16:36:54;7.97;;;3.78;;
22711;SDS011;11523;50.390;8.072;2023-07-22T16:39:20;5.32;;;3.67;;
22711;SDS011;11523;50.390;8.072;2023-07-22T16:41:47;4.45;;;3.53;;
22711;SDS011;11523;50.390;8.072;2023-07-22T16:44:13;4.30;;;3.83;;
22711;SDS011;11523;50.390;8.072;2023-07-22T16:46:39;4.75;;;3.40;;
22711;SDS011;11523;50.390;8.072;2023-07-22T16:49:05;5.53;;;4.05;;